Time;durP1;ratioP1;P1;durP2;ratioP2;P2;SDS_P1;SDS_P2;PMS_P1;PMS_P2;Temp;Humidity;BMP_temperature;BMP_pressure;BME280_temperature;BME280_humidity;BME280_pressure;Samples;Min_cycle;Max_cycle;Signal;HPM_P1;HPM_P2
2023/10/16 00:09:29;;;;;;;1.10;0.50;;;;;;;17.74;61.37;101900.16;20874366;28;20150;-65
2023/10/16 00:19:33;;;;;;;0.47;0.32;;;;;;;17.74;61.45;101902.84;20873468;28;20056;-65
2023/10/16 00:29:35;;;;;;;0.77;0.40;;;;;;;17.76;61.41;101890.13;20954996;28;20048;-65
2023/10/16 00:39:37;;;;;;;0.55;0.55;;;;;;;17.74;61.37;101897.47;20955430;28;20121;-65
2023/10/16 00:49:39;;;;;;;1.15;0.50;;;;;;;17.74;61.45;101892.06;20953707;28;20044;-65
2023/10/16 00:59:42;;;;;;;0.88;0.30;;;;;;;17.75;61.40;101896.50;20957363;28;20642;-65
2023/10/16 01:09:46;;;;;;;1.00;0.30;;;;;;;17.74;61.60;101897.47;20969944;28;20105;-65
2023/10/16 01:19:51;;;;;;;0.80;0.50;;;;;;;17.74;61.58;101885.81;20969698;28;20044;-65
2023/10/16 01:29:53;;;;;;;0.60;0.50;;;;;;;17.71;61.87;101876.16;20967075;28;20045;-65
2023/10/16 01:39:55;;;;;;;0.60;0.40;;;;;;;17.75;61.88;101883.03;20967441;28;20458;-65
2023/10/16 01:49:58;;;;;;;0.80;0.40;;;;;;;17.72;61.79;101885.94;20967617;28;20044;-65
2023/10/16 02:00:00;;;;;;;1.45;0.30;;;;;;;17.71;61.84;101876.16;20964839;28;20472;-65
2023/10/16 02:10:12;;;;;;;0.52;0.30;;;;;;;17.69;61.96;101870.84;20964243;28;20048;-65
2023/10/16 02:20:16;;;;;;;0.85;0.40;;;;;;;17.69;62.26;101861.94;20963104;28;20055;-65
2023/10/16 02:40:25;;;;;;;0.30;0.20;;;;;;;17.70;62.41;101869.03;20864369;28;20057;-65
2023/10/16 02:50:28;;;;;;;1.00;0.40;;;;;;;17.71;62.54;101853.72;20894987;28;20175;-65
2023/10/16 03:00:38;;;;;;;0.38;0.30;;;;;;;17.70;62.50;101858.25;20879157;28;20394;-65
2023/10/16 03:10:40;;;;;;;0.73;0.32;;;;;;;17.63;62.36;101859.66;20878315;28;20067;-65
2023/10/16 03:20:45;;;;;;;0.90;0.43;;;;;;;17.67;62.48;101858.47;20876681;28;20048;-65
2023/10/16 03:30:48;;;;;;;0.47;0.25;;;;;;;17.69;62.67;101870.84;20959738;28;20056;-65
2023/10/16 03:40:51;;;;;;;0.32;0.20;;;;;;;17.69;62.45;101860.09;20958064;28;20488;-65
2023/10/16 03:50:56;;;;;;;1.23;0.38;;;;;;;17.70;62.55;101877.13;20956124;28;20071;-65
2023/10/16 04:00:57;;;;;;;0.40;0.40;;;;;;;17.67;62.59;101880.00;20957492;28;20102;-65
2023/10/16 04:11:02;;;;;;;1.42;0.50;;;;;;;17.68;62.69;101877.22;20956749;28;20048;-65
2023/10/16 04:52:01;;;;;;;1.13;0.47;;;;;;;17.80;63.02;101837.75;20882314;28;20122;-65
2023/10/16 06:14:34;;;;;;;1.17;0.47;;;;;;;18.00;64.50;101850.72;20917802;28;20060;-64
2023/10/16 06:24:36;;;;;;;0.65;0.40;;;;;;;18.15;64.56;101857.69;20886540;28;20578;-64
2023/10/16 06:34:38;;;;;;;1.15;0.50;;;;;;;18.35;64.37;101856.19;20905812;28;20055;-64
2023/10/16 06:44:42;;;;;;;0.55;0.43;;;;;;;18.59;64.71;101866.09;20895183;28;20056;-64
2023/10/16 06:54:44;;;;;;;1.83;0.40;;;;;;;18.60;65.04;101859.72;20858423;28;20142;-65
2023/10/16 07:04:47;;;;;;;2.25;0.50;;;;;;;18.88;64.75;101895.34;20843830;28;20449;-64
2023/10/16 07:14:55;;;;;;;0.85;0.45;;;;;;;19.01;64.69;101875.56;20909551;28;20105;-63
2023/10/16 07:25:22;;;;;;;0.77;0.50;;;;;;;19.09;64.21;101865.88;20915178;28;20492;-65
2023/10/16 07:35:27;;;;;;;0.60;0.35;;;;;;;19.23;64.08;101875.59;20833079;28;20409;-62
2023/10/16 07:45:37;;;;;;;0.32;0.30;;;;;;;19.34;63.65;101873.88;20835801;28;20049;-62
2023/10/16 07:55:39;;;;;;;0.47;0.30;;;;;;;19.45;64.14;101883.81;20880114;28;20048;-60
2023/10/16 08:05:47;;;;;;;0.82;0.40;;;;;;;19.58;64.26;101894.50;20887203;28;20113;-61
2023/10/16 08:15:49;;;;;;;0.90;0.35;;;;;;;19.87;64.21;101897.53;20893620;28;20069;-62
2023/10/16 08:25:58;;;;;;;1.42;0.40;;;;;;;20.85;62.50;101895.78;20866906;28;20045;-60
2023/10/16 08:36:04;;;;;;;0.40;0.40;;;;;;;21.38;60.99;101912.88;20838179;28;20063;-61
2023/10/16 08:46:18;;;;;;;1.48;0.50;;;;;;;21.59;60.26;101907.41;20887100;28;20053;-61
2023/10/16 08:56:23;;;;;;;0.68;0.28;;;;;;;21.70;60.05;101921.94;20916360;28;20053;-62
2023/10/16 09:06:25;;;;;;;0.77;0.40;;;;;;;21.68;59.92;101934.75;20903440;28;20057;-60
2023/10/16 09:16:31;;;;;;;1.23;0.57;;;;;;;21.34;60.90;101933.13;20858583;28;20873;-60
2023/10/16 09:26:37;;;;;;;0.85;0.30;;;;;;;21.10;61.90;101930.69;20879928;28;20048;-63
2023/10/16 09:36:39;;;;;;;0.40;0.28;;;;;;;20.99;62.50;101929.78;20907298;28;20048;-62
2023/10/16 09:56:45;;;;;;;1.77;0.50;;;;;;;20.96;63.37;101930.03;20834459;28;20056;-61
2023/10/16 10:06:57;;;;;;;1.35;1.20;;;;;;;21.16;63.51;101935.56;20955621;28;20056;-61
2023/10/16 10:17:03;;;;;;;2.65;2.20;;;;;;;21.41;64.18;101944.28;20842268;28;20049;-61
2023/10/16 10:27:11;;;;;;;2.88;1.80;;;;;;;21.41;63.78;101938.88;20911490;28;20467;-61
2023/10/16 10:37:41;;;;;;;1.30;1.02;;;;;;;21.32;63.31;101928.84;20934441;28;20119;-62
2023/10/16 10:47:43;;;;;;;1.38;0.90;;;;;;;21.24;63.00;101922.25;20906498;28;20076;-62
2023/10/16 10:57:47;;;;;;;0.73;0.60;;;;;;;21.19;62.43;101932.59;20875593;28;20595;-62
2023/10/16 11:18:18;;;;;;;1.30;0.60;;;;;;;21.13;62.04;101916.88;20921762;28;20040;-62
2023/10/16 11:28:28;;;;;;;3.22;0.75;;;;;;;21.08;62.38;101911.03;20916266;28;20053;-62
2023/10/16 11:38:32;;;;;;;2.63;0.80;;;;;;;21.09;62.30;101902.78;20865687;28;20055;-62
2023/10/16 11:48:36;;;;;;;0.70;0.43;;;;;;;21.13;62.29;101895.22;20920753;28;20051;-62
2023/10/16 11:58:38;;;;;;;1.35;0.50;;;;;;;21.14;62.35;101899.66;20831036;28;20064;-62
2023/10/16 12:08:44;;;;;;;0.82;0.60;;;;;;;21.13;62.63;101900.63;20846341;28;20561;-62
2023/10/16 12:18:47;;;;;;;0.93;0.57;;;;;;;21.10;62.57;101892.78;20858821;28;20045;-62
2023/10/16 12:28:49;;;;;;;1.50;0.50;;;;;;;21.12;62.25;101890.81;20818518;28;20041;-62
2023/10/16 12:38:53;;;;;;;0.50;0.35;;;;;;;21.01;62.64;101884.47;20880768;28;20053;-62
2023/10/16 12:48:55;;;;;;;3.30;0.70;;;;;;;20.83;63.17;101891.50;20910546;28;20058;-63
2023/10/16 12:58:58;;;;;;;1.20;0.60;;;;;;;20.73;63.53;101875.16;20901118;28;20052;-62
2023/10/16 13:09:02;;;;;;;1.00;0.68;;;;;;;20.86;63.47;101873.13;20880565;28;20052;-61
2023/10/16 13:19:04;;;;;;;1.48;0.50;;;;;;;20.64;63.25;101817.25;20894589;28;20049;-62
2023/10/16 13:29:08;;;;;;;1.65;0.50;;;;;;;20.98;63.26;101865.81;20873194;28;20520;-62
2023/10/16 13:39:10;;;;;;;2.47;0.70;;;;;;;20.91;63.96;101870.03;20906204;28;20037;-61
2023/10/16 13:49:15;;;;;;;3.45;0.60;;;;;;;20.81;63.28;101869.13;20879774;28;20515;-61
2023/10/16 13:59:19;;;;;;;12.15;1.85;;;;;;;20.61;66.74;101858.13;20895873;28;20139;-61
2023/10/16 14:09:28;;;;;;;2.30;0.95;;;;;;;20.73;67.44;101876.00;20916322;28;20070;-60
2023/10/16 14:19:32;;;;;;;2.13;0.80;;;;;;;20.93;67.71;101859.94;20915117;28;20103;-60
2023/10/16 14:29:38;;;;;;;2.77;0.60;;;;;;;20.98;67.31;101860.38;20910571;28;20137;-62
2023/10/16 14:39:40;;;;;;;1.50;0.70;;;;;;;20.92;67.24;101857.34;20896592;28;20048;-62
2023/10/16 14:49:41;;;;;;;1.20;0.68;;;;;;;20.84;67.13;101850.75;20849939;28;20221;-62
2023/10/16 14:59:43;;;;;;;1.23;0.55;;;;;;;20.79;66.79;101846.75;20899749;28;20174;-62
2023/10/16 15:09:45;;;;;;;2.20;0.68;;;;;;;20.67;66.56;101848.63;20923532;28;20052;-70
2023/10/16 15:19:47;;;;;;;1.00;0.60;;;;;;;20.51;66.28;101830.97;20908187;28;20055;-70
2023/10/16 15:29:49;;;;;;;1.17;0.40;;;;;;;20.35;66.30;101847.69;20877336;28;20490;-71
2023/10/16 15:39:51;;;;;;;1.15;0.30;;;;;;;20.19;66.07;101839.13;20876151;28;20055;-70
2023/10/16 15:49:54;;;;;;;1.17;0.50;;;;;;;20.09;66.08;101839.91;20876087;28;20140;-71
2023/10/16 15:59:56;;;;;;;1.02;0.50;;;;;;;19.98;65.66;101831.84;20885056;28;20052;-71
2023/10/16 16:09:59;;;;;;;1.13;0.60;;;;;;;19.87;65.84;101829.97;20957389;28;20049;-70
2023/10/16 16:20:02;;;;;;;1.42;0.50;;;;;;;19.76;65.79;101828.16;20956549;28;20098;-71
2023/10/16 16:30:04;;;;;;;1.85;0.60;;;;;;;19.66;66.01;101838.00;20954609;28;20049;-70
2023/10/16 16:40:07;;;;;;;1.30;0.50;;;;;;;19.54;66.00;101851.53;20953503;28;20055;-71
2023/10/16 16:50:13;;;;;;;0.98;0.40;;;;;;;19.44;65.83;101850.53;20955597;28;20048;-71
2023/10/16 17:00:18;;;;;;;1.92;0.80;;;;;;;19.32;66.06;101852.41;20955408;28;20050;-71
2023/10/16 17:10:27;;;;;;;1.73;0.75;;;;;;;19.26;65.91;101864.53;20955348;28;20607;-70
2023/10/16 17:20:31;;;;;;;0.77;0.50;;;;;;;19.20;65.72;101864.16;20954217;28;20113;-71
2023/10/16 17:30:32;;;;;;;1.80;0.57;;;;;;;19.11;65.70;101872.00;20954584;28;20097;-71
2023/10/16 17:40:36;;;;;;;3.47;0.40;;;;;;;19.04;65.67;101872.63;20955110;28;20041;-71
2023/10/16 17:50:42;;;;;;;0.75;0.55;;;;;;;18.95;65.78;101872.31;20967970;28;20044;-70
2023/10/16 18:00:44;;;;;;;1.08;0.40;;;;;;;18.90;65.74;101871.81;20967156;28;20048;-71
2023/10/16 18:10:47;;;;;;;0.90;0.60;;;;;;;18.83;65.70;101875.97;20966368;28;20048;-71
2023/10/16 18:20:49;;;;;;;0.88;0.30;;;;;;;18.77;65.32;101871.06;20965193;28;20114;-71
2023/10/16 18:30:54;;;;;;;1.45;0.40;;;;;;;18.67;65.38;101863.69;20963152;28;20068;-70
2023/10/16 18:40:55;;;;;;;0.53;0.37;;;;;;;18.67;65.23;101863.69;20963364;28;20066;-73
2023/10/16 18:50:57;;;;;;;0.95;0.43;;;;;;;18.55;65.14;101853.81;20963144;28;20303;-73
2023/10/16 19:01:05;;;;;;;0.50;0.50;;;;;;;18.56;65.13;101855.56;20962380;28;20083;-73
2023/10/16 19:11:07;;;;;;;1.08;0.63;;;;;;;18.53;65.20;101858.47;20880026;28;20197;-73
2023/10/16 19:21:09;;;;;;;1.00;0.45;;;;;;;18.28;65.09;101825.28;20876101;28;20052;-73
2023/10/16 19:31:13;;;;;;;1.02;0.47;;;;;;;18.51;64.92;101879.28;20892408;28;20144;-73
2023/10/16 19:41:19;;;;;;;1.07;0.50;;;;;;;18.50;65.12;101880.25;20875940;28;20417;-73
2023/10/16 19:51:23;;;;;;;0.77;0.70;;;;;;;18.47;65.14;101883.19;20957601;28;20052;-73
2023/10/16 20:01:25;;;;;;;0.88;0.60;;;;;;;18.40;65.13;101889.06;20956092;28;20056;-73
2023/10/16 20:11:27;;;;;;;0.52;0.40;;;;;;;18.40;65.13;101899.84;20957340;28;20106;-73
2023/10/16 20:21:31;;;;;;;1.13;0.63;;;;;;;18.40;65.16;101888.22;20956935;28;20059;-73
2023/10/16 20:31:33;;;;;;;0.50;0.50;;;;;;;18.36;64.85;101894.81;20873484;28;20067;-73
2023/10/16 20:41:51;;;;;;;1.45;0.63;;;;;;;18.32;64.80;101896.88;20874640;28;20133;-74
2023/10/16 20:51:53;;;;;;;0.90;0.70;;;;;;;18.29;64.71;101904.31;20871339;28;20045;-73
2023/10/16 21:01:55;;;;;;;1.67;0.90;;;;;;;18.27;64.44;101901.75;20870665;28;20053;-73
2023/10/16 21:11:57;;;;;;;1.17;0.70;;;;;;;18.23;64.28;101909.19;20872486;28;20051;-73
2023/10/16 21:21:58;;;;;;;1.05;0.82;;;;;;;18.19;64.30;101901.47;20882144;28;20143;-73
2023/10/16 21:32:00;;;;;;;1.65;0.93;;;;;;;18.16;64.29;101901.69;20887015;28;20041;-73
2023/10/16 21:42:02;;;;;;;1.30;0.80;;;;;;;18.14;64.17;101892.84;20885555;28;20051;-73
2023/10/16 21:52:04;;;;;;;1.33;0.98;;;;;;;18.13;64.19;101891.13;20901623;28;20484;-73
2023/10/16 22:02:06;;;;;;;1.98;1.25;;;;;;;18.10;64.15;101901.13;20940427;28;20106;-73
2023/10/16 22:12:12;;;;;;;1.77;0.98;;;;;;;18.08;63.97;101900.41;20929590;28;20146;-73
2023/10/16 22:22:15;;;;;;;1.63;1.20;;;;;;;18.05;64.16;101905.16;20910154;28;20052;-73
2023/10/16 22:32:17;;;;;;;1.30;1.05;;;;;;;18.00;64.16;101897.38;20962865;28;20174;-73
2023/10/16 22:42:19;;;;;;;1.33;0.90;;;;;;;17.99;64.20;101890.28;20944006;28;20059;-74
2023/10/16 22:52:20;;;;;;;1.25;1.00;;;;;;;17.96;64.28;101890.50;20951822;28;20045;-73
2023/10/16 23:02:22;;;;;;;1.27;0.80;;;;;;;17.95;63.93;101889.66;20948157;28;20048;-73
2023/10/16 23:12:36;;;;;;;1.60;0.90;;;;;;;17.94;63.96;101889.75;20949168;28;20052;-73
2023/10/16 23:22:38;;;;;;;1.10;0.95;;;;;;;17.93;63.74;101896.13;20955097;28;20140;-73
2023/10/16 23:32:40;;;;;;;1.35;0.88;;;;;;;17.88;63.63;101909.91;20936325;28;20121;-73
2023/10/16 23:42:42;;;;;;;0.98;0.82;;;;;;;17.87;63.64;101891.19;20949064;28;20051;-73
2023/10/16 23:52:58;;;;;;;1.10;1.00;;;;;;;17.84;63.56;101884.16;20946188;28;20052;-73
